EDT,Max TemperatureF,Mean TemperatureF,Min TemperatureF,Max Dew PointF,MeanDew PointF,Min DewpointF,Max Humidity, Mean Humidity, Min Humidity, Max Sea Level PressureIn, Mean Sea Level PressureIn, Min Sea Level PressureIn, Max VisibilityMiles, Mean VisibilityMiles, Min VisibilityMiles, Max Wind SpeedMPH, Mean Wind SpeedMPH, Max Gust SpeedMPH,PrecipitationIn, CloudCover, Events, WindDirDegrees
2012-10-1,60,,60,61,61,61,100,100,100,29.97,29.92,29.90,10,7,3,8,2,,0.06,7,Rain,59
2012-10-2,84,83,80,82,77,72,100,83,66,29.99,29.89,29.85,10,6,0,10,3,20,0.11,6,Fog-Rain,168
2012-10-3,84,82,78,77,72,70,94,74,62,30.18,30.09,29.99,10,8,2,9,3,,0.00,5,Rain,187
2012-10-4,75,73,71,72,67,64,100,81,73,30.25,30.19,30.16,10,9,5,4,0,,0.01,3,Rain,236
2012-10-5,78,70,62,68,60,55,100,63,44,30.19,30.14,30.05,10,9,4,6,1,,0.00,0,,105
2012-10-6,80,74,64,72,63,57,100,70,45,30.03,29.95,29.90,10,9,7,8,2,,0.00,3,,249
2012-10-7,62,56,51,57,50,46,100,83,59,30.16,30.06,29.98,10,8,2,13,5,17,0.23,7,Rain,11
2012-10-8,50,49,46,50,45,41,100,87,71,30.25,30.18,30.14,10,8,3,10,5,16,0.44,8,Rain,9
2012-10-9,,,,,,,,,,30.17,30.12,30.08,10,5,2,9,5,,0.01,8,,350
2012-10-10,69,62,55,61,53,48,100,71,49,30.11,30.05,29.98,10,8,4,8,1,,0.00,4,,269
2012-10-11,64,57,50,54,44,37,100,62,42,30.32,30.24,30.12,10,10,7,7,0,,0.00,0,,27
2012-10-12,69,60,51,54,46,41,100,61,35,30.38,30.23,30.18,10,9,4,9,1,,0.00,0,,355
2012-10-13,64,52,41,52,42,37,100,64,42,30.49,30.42,30.36,10,10,10,9,3,,0.00,0,,38
2012-10-14,73,66,60,63,57,54,100,64,50,30.35,30.22,30.04,10,9,5,8,1,,0.00,1,,195
2012-10-15,55,,55,55,55,55,100,100,100,30.03,29.87,29.73,10,8,1,7,2,,0.35,4,Rain,216
2012-10-16,66,55,44,54,44,41,100,67,40,29.98,29.92,29.86,10,10,5,5,1,,0.00,0,,320
2012-10-17,69,61,53,59,48,43,100,61,38,30.03,29.98,29.94,10,9,4,9,1,,0.00,0,,167
2012-10-18,75,68,60,72,63,59,100,79,61,29.97,29.89,29.81,10,8,5,9,2,16,0.04,2,Rain,150
2012-10-19,77,64,50,70,48,34,100,55,28,29.79,29.76,29.69,10,8,3,14,3,24,0.03,3,Rain,202
2012-10-20,69,56,44,52,44,41,100,66,37,29.96,29.83,29.77,10,9,7,7,2,,0.00,0,,256
2012-10-21,64,53,42,48,41,37,100,67,37,30.17,30.09,29.97,10,10,7,10,1,,0.00,0,,356
2012-10-22,69,60,50,50,45,37,100,57,31,30.25,30.19,30.16,10,9,5,5,0,,0.00,0,,332
2012-10-23,77,66,55,59,51,45,100,60,32,30.20,30.16,30.12,10,9,7,7,1,,0.00,0,,216
2012-10-24,78,64,51,59,53,46,100,71,32,30.21,30.15,30.10,10,10,7,6,1,,0.00,0,,219
2012-10-25,78,66,55,61,57,54,100,63,42,30.20,30.15,30.12,10,9,5,5,0,,0.00,0,,73
2012-10-26,69,68,66,68,64,63,100,87,78,30.13,30.06,29.95,10,6,1,13,5,16,0.05,7,Rain,18
2012-10-27,64,62,60,64,57,55,100,81,77,29.94,29.80,29.71,10,9,7,16,10,31,0.00,7,,12
2012-10-28,60,58,53,54,49,45,100,71,55,29.71,29.61,29.56,10,9,3,17,11,26,0.06,7,,347
2012-10-29,46,45,44,45,45,45,100,99,93,29.56,29.44,29.26,10,8,4,12,8,25,0.43,8,Rain,293
2012-10-30,48,44,41,41,33,32,100,63,54,29.59,29.42,29.26,10,10,7,12,8,28,0.04,6,Rain,237
2012-10-31,53,45,37,37,34,32,93,64,47,29.77,29.68,29.59,10,10,10,8,4,16,0.00,4,,240